createdAt,value
2023-03-15T00:02:06.545Z,5.00
2023-03-15T00:04:54.856Z,5.00
2023-03-15T00:07:42.604Z,4.90
2023-03-15T00:10:29.799Z,4.90
2023-03-15T00:13:17.187Z,4.90
2023-03-15T00:16:05.393Z,5.10
2023-03-15T00:18:52.368Z,4.90
2023-03-15T00:21:39.752Z,4.90
2023-03-15T00:24:28.206Z,5.00
2023-03-15T00:27:14.889Z,5.00
2023-03-15T00:30:01.835Z,5.00
2023-03-15T00:32:53.871Z,5.00
2023-03-15T00:35:41.789Z,5.00
2023-03-15T00:38:28.458Z,5.00
2023-03-15T00:41:18.728Z,5.00
2023-03-15T00:44:05.447Z,5.00
2023-03-15T00:46:52.181Z,5.00
2023-03-15T00:49:39.283Z,5.00
2023-03-15T00:52:26.152Z,5.00
2023-03-15T00:55:14.275Z,4.90
2023-03-15T00:58:02.754Z,4.90
2023-03-15T01:00:49.559Z,4.90
2023-03-15T01:03:37.063Z,4.80
2023-03-15T01:06:26.620Z,4.90
2023-03-15T01:09:13.760Z,4.80
2023-03-15T01:12:00.242Z,4.60
2023-03-15T01:14:48.427Z,4.60
2023-03-15T01:17:36.028Z,4.50
2023-03-15T01:20:23.123Z,4.50
2023-03-15T01:23:09.504Z,4.50
2023-03-15T01:25:56.512Z,4.40
2023-03-15T01:28:43.127Z,4.30
2023-03-15T01:31:32.285Z,4.30
2023-03-15T01:34:19.173Z,4.40
2023-03-15T01:37:06.488Z,4.30
2023-03-15T01:39:59.444Z,4.30
2023-03-15T01:43:14.620Z,4.30
2023-03-15T01:46:08.062Z,4.40
2023-03-15T01:49:05.031Z,4.40
2023-03-15T01:52:02.215Z,4.40
2023-03-15T01:55:02.989Z,4.50
2023-03-15T01:57:55.995Z,4.50
2023-03-15T02:00:44.313Z,4.50
2023-03-15T02:03:38.862Z,4.60
2023-03-15T02:06:27.578Z,4.60
2023-03-15T02:09:17.506Z,4.50
2023-03-15T02:12:06.290Z,4.50
2023-03-15T02:14:54.372Z,4.40
2023-03-15T02:17:46.112Z,4.30
2023-03-15T02:20:38.071Z,4.30
2023-03-15T02:23:26.281Z,4.30
2023-03-15T02:26:18.928Z,4.20
2023-03-15T02:29:07.055Z,4.20
2023-03-15T02:31:54.422Z,4.20
2023-03-15T02:34:44.589Z,4.20
2023-03-15T02:37:31.590Z,4.20
2023-03-15T02:40:20.755Z,4.10
2023-03-15T02:43:11.602Z,4.20
2023-03-15T02:46:00.380Z,4.00
2023-03-15T02:48:48.016Z,4.00
2023-03-15T02:51:35.239Z,4.00
2023-03-15T02:54:21.673Z,4.00
2023-03-15T02:57:08.728Z,4.00
2023-03-15T02:59:56.872Z,4.00
2023-03-15T03:02:46.951Z,3.90
2023-03-15T03:05:33.748Z,3.90
2023-03-15T03:08:20.801Z,3.90
2023-03-15T03:11:08.145Z,3.80
2023-03-15T03:13:56.159Z,3.90
2023-03-15T03:16:43.498Z,3.90
2023-03-15T03:19:31.645Z,3.90
2023-03-15T03:22:18.156Z,3.90
2023-03-15T03:25:06.208Z,3.80
2023-03-15T03:27:56.970Z,3.80
2023-03-15T03:30:44.846Z,3.70
2023-03-15T03:33:34.242Z,3.60
2023-03-15T03:36:24.800Z,3.60
2023-03-15T03:39:11.630Z,3.60
2023-03-15T03:41:58.210Z,3.50
2023-03-15T03:44:45.275Z,3.50
2023-03-15T03:47:32.210Z,3.50
2023-03-15T03:50:19.283Z,3.50
2023-03-15T03:53:07.309Z,3.60
2023-03-15T03:55:55.600Z,3.50
2023-03-15T03:58:43.389Z,3.60
2023-03-15T04:01:37.393Z,3.40
2023-03-15T04:04:26.356Z,3.50
2023-03-15T04:07:14.922Z,3.50
2023-03-15T04:10:06.134Z,3.50
2023-03-15T04:12:55.058Z,3.60
2023-03-15T04:15:42.646Z,3.50
2023-03-15T04:18:30.786Z,3.50
2023-03-15T04:21:22.947Z,3.40
2023-03-15T04:24:12.788Z,3.40
2023-03-15T04:27:21.779Z,3.40
2023-03-15T04:30:38.540Z,3.40
2023-03-15T04:33:44.037Z,3.30
2023-03-15T04:37:07.130Z,3.30
2023-03-15T04:40:15.294Z,3.30
2023-03-15T04:43:16.338Z,3.30
2023-03-15T04:46:23.884Z,3.30
2023-03-15T04:49:28.959Z,3.20
2023-03-15T04:52:24.856Z,3.20
2023-03-15T04:55:30.301Z,3.30
2023-03-15T04:58:37.669Z,3.20
2023-03-15T05:01:42.951Z,3.30
2023-03-15T05:04:37.942Z,3.20
2023-03-15T05:07:43.168Z,3.20
2023-03-15T05:10:41.884Z,3.10
2023-03-15T05:13:50.350Z,3.10
2023-03-15T05:16:55.300Z,3.20
2023-03-15T05:20:08.007Z,3.20
2023-03-15T05:23:08.393Z,3.20
2023-03-15T05:26:21.150Z,3.30
2023-03-15T05:29:18.897Z,3.30
2023-03-15T05:32:26.571Z,3.40
2023-03-15T05:35:36.377Z,3.40
2023-03-15T05:38:52.805Z,3.40
2023-03-15T05:41:49.329Z,3.40
2023-03-15T05:45:00.512Z,3.40
2023-03-15T05:47:59.454Z,3.40
2023-03-15T05:51:13.271Z,3.40
2023-03-15T05:54:18.416Z,3.60
2023-03-15T05:57:25.364Z,3.60
2023-03-15T06:00:32.251Z,3.70
2023-03-15T06:03:25.434Z,3.70
2023-03-15T06:06:18.630Z,3.80
2023-03-15T06:09:05.644Z,3.80
2023-03-15T06:11:53.555Z,3.90
2023-03-15T06:14:41.288Z,3.90
2023-03-15T06:17:29.844Z,4.00
2023-03-15T06:20:16.362Z,4.20
2023-03-15T06:23:03.363Z,4.40
2023-03-15T06:25:58.397Z,4.60
2023-03-15T06:28:45.916Z,4.80
2023-03-15T06:31:32.850Z,5.30
2023-03-15T06:34:27.353Z,5.50
2023-03-15T06:37:22.747Z,6.20
2023-03-15T06:40:16.519Z,6.80
2023-03-15T06:43:06.591Z,7.10
2023-03-15T06:45:55.986Z,7.80
2023-03-15T06:48:43.029Z,8.10
2023-03-15T06:51:32.761Z,8.50
2023-03-15T06:54:19.336Z,8.50
2023-03-15T06:57:06.084Z,8.60
2023-03-15T06:59:54.082Z,8.30
2023-03-15T07:02:41.055Z,8.20
2023-03-15T07:05:28.008Z,8.40
2023-03-15T07:08:15.753Z,8.30
2023-03-15T07:11:03.569Z,8.30
2023-03-15T07:13:50.382Z,8.10
2023-03-15T07:16:37.095Z,8.30
2023-03-15T07:19:23.432Z,8.60
2023-03-15T07:22:10.136Z,9.30
2023-03-15T07:24:57.833Z,9.70
2023-03-15T07:27:44.639Z,9.80
2023-03-15T07:30:31.268Z,9.80
2023-03-15T07:33:17.800Z,10.10
2023-03-15T07:36:05.614Z,10.60
2023-03-15T07:38:52.289Z,10.50
2023-03-15T07:41:40.676Z,10.50
2023-03-15T07:44:35.424Z,10.80
2023-03-15T07:47:22.024Z,10.60
2023-03-15T07:50:12.626Z,10.10
2023-03-15T07:52:59.955Z,9.30
2023-03-15T07:55:48.538Z,9.10
2023-03-15T07:58:36.597Z,9.30
2023-03-15T08:01:23.530Z,9.40
2023-03-15T08:04:10.252Z,9.40
2023-03-15T08:06:56.759Z,9.20
2023-03-15T08:09:43.426Z,8.90
2023-03-15T08:12:30.932Z,8.80
2023-03-15T08:15:19.782Z,8.90
2023-03-15T08:18:07.245Z,8.80
2023-03-15T08:20:53.572Z,8.70
2023-03-15T08:23:40.544Z,8.90
2023-03-15T08:26:27.507Z,9.40
2023-03-15T08:29:14.287Z,9.40
2023-03-15T08:32:03.256Z,9.50
2023-03-15T08:34:50.069Z,9.50
2023-03-15T08:37:36.732Z,9.30
2023-03-15T08:40:26.262Z,9.50
2023-03-15T08:43:12.699Z,9.50
2023-03-15T08:46:01.648Z,9.50
2023-03-15T08:48:49.928Z,9.90
2023-03-15T08:51:36.771Z,10.50
2023-03-15T08:54:23.566Z,10.90
2023-03-15T08:57:10.149Z,10.90
2023-03-15T08:59:57.628Z,10.80
2023-03-15T09:02:44.822Z,10.40
2023-03-15T09:05:33.265Z,9.90
2023-03-15T09:08:21.419Z,9.70
2023-03-15T09:11:08.077Z,9.60
2023-03-15T09:13:54.640Z,9.60
2023-03-15T09:16:41.012Z,9.70
2023-03-15T09:19:27.735Z,9.80
2023-03-15T09:22:16.639Z,9.70
2023-03-15T09:25:10.906Z,9.40
2023-03-15T09:27:57.715Z,9.40
2023-03-15T09:30:44.637Z,9.40
2023-03-15T09:33:33.099Z,9.30
2023-03-15T09:36:19.673Z,9.20
2023-03-15T09:39:08.423Z,9.20
2023-03-15T09:41:58.795Z,8.90
2023-03-15T09:44:49.104Z,8.90
2023-03-15T09:47:46.346Z,9.20
2023-03-15T09:50:37.900Z,9.20
2023-03-15T09:53:29.159Z,9.30
2023-03-15T09:56:25.089Z,9.20
2023-03-15T09:59:12.369Z,9.60
2023-03-15T10:02:02.384Z,9.90
2023-03-15T10:04:52.895Z,9.80
2023-03-15T10:07:39.409Z,9.60
2023-03-15T10:10:33.643Z,9.20
2023-03-15T10:13:42.372Z,9.10
2023-03-15T10:16:37.833Z,9.20
2023-03-15T10:19:33.263Z,9.00
2023-03-15T10:22:27.164Z,9.00
2023-03-15T10:25:17.838Z,9.30
2023-03-15T10:28:09.865Z,9.40
2023-03-15T10:31:01.627Z,9.50
2023-03-15T10:33:51.005Z,9.40
2023-03-15T10:36:37.483Z,9.60
2023-03-15T10:39:25.861Z,9.50
2023-03-15T10:42:34.055Z,9.20
2023-03-15T10:45:23.613Z,9.00
2023-03-15T10:48:11.739Z,8.90
2023-03-15T10:50:59.290Z,8.90
2023-03-15T10:53:54.735Z,9.00
2023-03-15T10:56:47.389Z,8.90
2023-03-15T10:59:35.734Z,8.80
2023-03-15T11:02:24.873Z,8.60
2023-03-15T11:05:18.985Z,8.50
2023-03-15T11:08:11.519Z,8.40
2023-03-15T11:11:00.189Z,8.20
2023-03-15T11:14:01.402Z,8.00
2023-03-15T11:16:50.042Z,7.90
2023-03-15T11:19:42.813Z,7.80
2023-03-15T11:22:31.158Z,7.60
2023-03-15T11:25:19.279Z,7.30
2023-03-15T11:28:06.321Z,7.10
2023-03-15T11:30:53.076Z,6.90
2023-03-15T11:33:46.865Z,6.80
2023-03-15T11:36:34.691Z,6.70
2023-03-15T11:39:31.248Z,6.60
2023-03-15T11:42:24.153Z,6.60
2023-03-15T11:45:17.349Z,6.70
2023-03-15T11:48:12.374Z,6.70
2023-03-15T11:51:00.265Z,6.90
2023-03-15T11:53:50.849Z,6.80
2023-03-15T11:56:57.288Z,6.90
2023-03-15T11:59:46.842Z,7.00
2023-03-15T12:02:50.131Z,7.00
2023-03-15T12:05:44.379Z,7.10
2023-03-15T12:08:48.405Z,7.20
2023-03-15T12:11:40.423Z,7.30
2023-03-15T12:14:35.060Z,7.40
2023-03-15T12:17:45.290Z,7.20
2023-03-15T12:20:37.726Z,7.20
2023-03-15T12:23:36.625Z,7.10
2023-03-15T12:26:41.165Z,7.10
2023-03-15T12:29:32.485Z,7.20
2023-03-15T12:32:20.195Z,7.30
2023-03-15T12:35:17.055Z,7.50
2023-03-15T12:38:04.426Z,7.80
2023-03-15T12:40:53.981Z,7.90
2023-03-15T12:43:43.027Z,7.90
2023-03-15T12:46:55.746Z,7.90
2023-03-15T12:49:44.416Z,7.90
2023-03-15T12:52:42.863Z,7.90
2023-03-15T12:55:32.750Z,7.80
2023-03-15T12:58:27.004Z,7.70
2023-03-15T13:01:25.639Z,7.70
2023-03-15T13:04:15.175Z,7.60
2023-03-15T13:07:19.746Z,7.60
2023-03-15T13:10:31.946Z,7.60
2023-03-15T13:13:31.246Z,7.50
2023-03-15T13:16:35.672Z,7.60
2023-03-15T13:19:27.049Z,7.60
2023-03-15T13:22:23.178Z,7.70
2023-03-15T13:25:16.612Z,8.00
2023-03-15T13:28:08.305Z,8.30
2023-03-15T13:30:56.138Z,8.50
2023-03-15T13:33:43.331Z,8.60
2023-03-15T13:36:41.325Z,8.30
2023-03-15T13:39:30.450Z,7.90
2023-03-15T13:42:20.001Z,7.50
2023-03-15T13:45:14.261Z,7.50
2023-03-15T13:48:06.090Z,7.50
2023-03-15T13:50:54.494Z,7.50
2023-03-15T13:53:49.887Z,7.60
2023-03-15T13:56:49.208Z,7.60
2023-03-15T13:59:40.932Z,7.70
2023-03-15T14:02:37.524Z,7.60
2023-03-15T14:05:29.007Z,7.70
2023-03-15T14:08:22.827Z,7.80
2023-03-15T14:11:13.590Z,8.00
2023-03-15T14:14:03.278Z,8.20
2023-03-15T14:17:03.752Z,8.20
2023-03-15T14:19:55.300Z,8.30
2023-03-15T14:22:42.946Z,8.20
2023-03-15T14:25:29.483Z,8.10
2023-03-15T14:28:18.408Z,8.10
2023-03-15T14:31:05.200Z,7.90
2023-03-15T14:33:56.936Z,7.90
2023-03-15T14:36:45.744Z,7.90
2023-03-15T14:39:39.957Z,7.80
2023-03-15T14:42:26.350Z,7.80
2023-03-15T14:45:15.175Z,7.60
2023-03-15T14:48:05.742Z,7.40
2023-03-15T14:50:52.441Z,7.40
2023-03-15T14:53:39.004Z,7.30
2023-03-15T14:56:26.535Z,7.20
2023-03-15T14:59:13.930Z,7.20
2023-03-15T15:02:02.928Z,7.30
2023-03-15T15:04:49.841Z,7.40
2023-03-15T15:07:37.072Z,7.50
2023-03-15T15:10:25.169Z,7.60
2023-03-15T15:13:19.681Z,7.70
2023-03-15T15:16:09.681Z,7.70
2023-03-15T15:18:58.098Z,7.70
2023-03-15T15:21:45.577Z,7.70
2023-03-15T15:24:32.554Z,7.80
2023-03-15T15:27:19.077Z,7.80
2023-03-15T15:30:06.747Z,7.80
2023-03-15T15:32:53.671Z,7.70
2023-03-15T15:35:41.766Z,7.70
2023-03-15T15:38:33.066Z,7.70
2023-03-15T15:41:24.053Z,7.70
2023-03-15T15:44:16.619Z,7.60
2023-03-15T15:47:03.158Z,7.80
2023-03-15T15:49:49.835Z,7.90
2023-03-15T15:52:40.592Z,8.00
2023-03-15T15:55:31.842Z,7.90
2023-03-15T15:58:18.370Z,7.90
2023-03-15T16:01:04.810Z,7.80
2023-03-15T16:03:51.710Z,7.80
2023-03-15T16:06:39.036Z,7.90
2023-03-15T16:09:28.203Z,7.90
2023-03-15T16:12:16.718Z,7.90
2023-03-15T16:15:03.753Z,7.80
2023-03-15T16:17:50.508Z,7.70
2023-03-15T16:20:37.282Z,7.70
2023-03-15T16:23:25.584Z,7.80
2023-03-15T16:26:16.307Z,7.90
2023-03-15T16:29:03.077Z,7.90
2023-03-15T16:31:49.938Z,7.80
2023-03-15T16:34:36.322Z,7.70
2023-03-15T16:37:24.764Z,7.60
2023-03-15T16:40:19.314Z,7.70
2023-03-15T16:43:08.623Z,7.60
2023-03-15T16:45:55.496Z,7.50
2023-03-15T16:48:41.932Z,7.50
2023-03-15T16:51:28.559Z,7.30
2023-03-15T16:57:24.024Z,7.20
2023-03-15T17:00:16.708Z,7.20
2023-03-15T17:03:04.386Z,7.20
2023-03-15T17:05:50.893Z,7.00
2023-03-15T17:08:37.627Z,6.80
2023-03-15T17:11:24.423Z,6.70
2023-03-15T17:14:16.398Z,6.70
2023-03-15T17:17:04.411Z,6.50
2023-03-15T17:19:52.639Z,6.30
2023-03-15T17:22:39.579Z,6.20
2023-03-15T17:25:26.006Z,5.90
2023-03-15T17:28:12.668Z,5.90
2023-03-15T17:31:20.353Z,5.90
2023-03-15T17:34:08.181Z,6.00
2023-03-15T17:36:55.966Z,6.10
2023-03-15T17:39:43.054Z,6.10
2023-03-15T17:42:29.605Z,6.10
2023-03-15T17:45:20.674Z,6.10
2023-03-15T17:48:07.861Z,6.00
2023-03-15T17:50:55.909Z,6.10
2023-03-15T17:53:42.255Z,6.20
2023-03-15T17:56:29.649Z,6.20
2023-03-15T17:59:16.045Z,6.10
2023-03-15T18:02:02.428Z,5.90
2023-03-15T18:04:48.957Z,5.90
2023-03-15T18:07:36.962Z,5.80
2023-03-15T18:10:29.439Z,5.90
2023-03-15T18:13:18.096Z,5.90
2023-03-15T18:16:04.944Z,5.80
2023-03-15T18:18:51.653Z,5.90
2023-03-15T18:21:38.366Z,6.00
2023-03-15T18:24:26.463Z,5.90
2023-03-15T18:27:13.068Z,5.70
2023-03-15T18:29:59.976Z,5.60
2023-03-15T18:32:47.001Z,5.60
2023-03-15T18:35:35.673Z,5.60
2023-03-15T18:38:22.611Z,5.60
2023-03-15T18:41:20.249Z,5.60
2023-03-15T18:44:07.310Z,5.60
2023-03-15T18:46:53.849Z,5.70
2023-03-15T18:49:40.390Z,5.80
2023-03-15T18:52:26.734Z,5.80
2023-03-15T18:55:14.969Z,5.70
2023-03-15T18:58:02.935Z,5.60
2023-03-15T19:00:49.773Z,5.50
2023-03-15T19:03:36.473Z,5.40
2023-03-15T19:06:23.369Z,5.40
2023-03-15T19:09:09.923Z,5.40
2023-03-15T19:11:56.221Z,5.30
2023-03-15T19:14:44.044Z,5.10
2023-03-15T19:17:30.704Z,5.10
2023-03-15T19:20:21.400Z,5.10
2023-03-15T19:23:07.847Z,5.20
2023-03-15T19:25:54.335Z,5.20
2023-03-15T19:28:41.089Z,5.30
2023-03-15T19:31:29.225Z,5.30
2023-03-15T19:34:15.836Z,5.40
2023-03-15T19:37:02.828Z,5.40
2023-03-15T19:39:49.241Z,5.40
2023-03-15T19:42:38.256Z,5.20
2023-03-15T19:45:24.505Z,5.20
2023-03-15T19:48:13.199Z,5.20
2023-03-15T19:51:00.283Z,5.10
2023-03-15T19:53:47.006Z,4.80
2023-03-15T19:56:34.122Z,4.50
2023-03-15T19:59:20.765Z,4.40
2023-03-15T20:02:07.669Z,4.30
2023-03-15T20:04:55.815Z,4.20
2023-03-15T20:07:43.020Z,4.30
2023-03-15T20:10:29.455Z,4.20
2023-03-15T20:13:16.191Z,4.20
2023-03-15T20:16:02.997Z,4.20
2023-03-15T20:18:51.048Z,4.30
2023-03-15T20:21:39.131Z,4.50
2023-03-15T20:24:25.926Z,4.70
2023-03-15T20:27:13.284Z,4.80
2023-03-15T20:30:01.681Z,4.60
2023-03-15T20:32:48.788Z,4.40
2023-03-15T20:35:37.238Z,4.30
2023-03-15T20:38:25.165Z,4.30
2023-03-15T20:41:13.808Z,4.20
2023-03-15T20:44:00.506Z,4.10
2023-03-15T20:46:47.358Z,3.70
2023-03-15T20:49:34.128Z,3.60
2023-03-15T20:52:20.856Z,3.50
2023-03-15T20:55:09.891Z,3.50
2023-03-15T20:57:56.218Z,3.40
2023-03-15T21:00:44.414Z,3.40
2023-03-15T21:03:33.905Z,3.50
2023-03-15T21:06:20.982Z,3.70
2023-03-15T21:09:07.703Z,3.70
2023-03-15T21:11:57.081Z,3.60
2023-03-15T21:14:44.137Z,3.70
2023-03-15T21:17:30.766Z,3.40
2023-03-15T21:20:17.746Z,3.20
2023-03-15T21:23:04.426Z,3.30
2023-03-15T21:25:55.338Z,3.20
2023-03-15T21:28:43.823Z,3.10
2023-03-15T21:31:30.710Z,3.10
2023-03-15T21:34:17.537Z,2.90
2023-03-15T21:37:04.138Z,2.90
2023-03-15T21:39:50.497Z,2.90
2023-03-15T21:42:37.211Z,3.00
2023-03-15T21:45:25.218Z,2.90
2023-03-15T21:48:12.414Z,3.00
2023-03-15T21:50:59.124Z,2.90
2023-03-15T21:53:46.240Z,2.80
2023-03-15T21:56:32.715Z,2.60
2023-03-15T21:59:19.010Z,2.70
2023-03-15T22:02:07.906Z,2.60
2023-03-15T22:04:54.635Z,2.50
2023-03-15T22:07:41.053Z,2.40
2023-03-15T22:10:27.733Z,2.40
2023-03-15T22:13:14.581Z,2.40
2023-03-15T22:16:01.418Z,2.40
2023-03-15T22:18:48.303Z,2.50
2023-03-15T22:21:36.751Z,2.60
2023-03-15T22:24:23.577Z,2.50
2023-03-15T22:27:10.280Z,2.50
2023-03-15T22:29:56.907Z,2.50
2023-03-15T22:32:44.231Z,2.40
2023-03-15T22:35:31.056Z,2.30
2023-03-15T22:38:19.386Z,2.30
2023-03-15T22:41:08.358Z,2.40
2023-03-15T22:43:55.970Z,2.20
2023-03-15T22:46:42.638Z,2.30
2023-03-15T22:49:29.524Z,2.50
2023-03-15T22:52:15.980Z,2.50
2023-03-15T22:55:03.974Z,2.40
2023-03-15T22:57:50.983Z,2.20
2023-03-15T23:00:37.735Z,2.00
2023-03-15T23:03:24.332Z,2.10
2023-03-15T23:06:11.129Z,2.10
2023-03-15T23:08:57.779Z,2.20
2023-03-15T23:11:46.063Z,2.20
2023-03-15T23:14:33.554Z,2.20
2023-03-15T23:17:21.861Z,2.20
2023-03-15T23:20:10.220Z,2.20
2023-03-15T23:22:56.553Z,2.10
2023-03-15T23:25:43.181Z,2.20
2023-03-15T23:28:31.253Z,2.30
2023-03-15T23:31:17.692Z,2.20
2023-03-15T23:34:05.121Z,2.20
2023-03-15T23:36:51.714Z,2.10
2023-03-15T23:39:38.390Z,2.10
2023-03-15T23:42:25.774Z,2.20
2023-03-15T23:45:16.337Z,2.30
2023-03-15T23:48:03.371Z,2.20
2023-03-15T23:50:54.168Z,2.10
2023-03-15T23:53:40.782Z,2.10
2023-03-15T23:56:27.909Z,2.00
2023-03-15T23:59:14.620Z,2.20
